createdAt,value
2023-01-07T00:01:41.956Z,70.96
2023-01-07T00:04:12.693Z,70.99
2023-01-07T00:06:40.917Z,70.73
2023-01-07T00:09:11.507Z,71.04
2023-01-07T00:11:40.009Z,70.93
2023-01-07T00:14:08.168Z,70.24
2023-01-07T00:16:36.355Z,70.47
2023-01-07T00:19:06.571Z,70.94
2023-01-07T00:21:33.421Z,70.51
2023-01-07T00:24:02.237Z,70.97
2023-01-07T00:26:34.631Z,70.85
2023-01-07T00:29:01.317Z,70.51
2023-01-07T00:31:30.741Z,70.59
2023-01-07T00:33:57.994Z,70.71
2023-01-07T00:36:46.157Z,70.96
2023-01-07T00:39:18.583Z,70.91
2023-01-07T00:42:04.315Z,71.17
2023-01-07T00:44:31.406Z,71.46
2023-01-07T00:46:59.302Z,71.47
2023-01-07T00:49:26.405Z,71.41
2023-01-07T00:51:53.458Z,71.36
2023-01-07T00:54:20.366Z,71.53
2023-01-07T00:56:46.851Z,71.58
2023-01-07T00:59:13.743Z,71.68
2023-01-07T01:01:42.617Z,71.20
2023-01-07T01:04:09.315Z,71.10
2023-01-07T01:06:36.316Z,70.87
2023-01-07T01:09:02.821Z,71.07
2023-01-07T01:11:29.275Z,71.22
2023-01-07T01:13:56.094Z,71.53
2023-01-07T01:16:22.991Z,71.61
2023-01-07T01:18:49.694Z,71.42
2023-01-07T01:21:17.085Z,71.43
2023-01-07T01:23:44.265Z,71.86
2023-01-07T01:26:16.294Z,72.05
2023-01-07T01:28:43.761Z,71.96
2023-01-07T01:31:12.288Z,71.81
2023-01-07T01:33:46.622Z,71.72
2023-01-07T01:36:13.421Z,71.50
2023-01-07T01:38:41.346Z,71.63
2023-01-07T01:41:09.026Z,71.67
2023-01-07T01:43:41.269Z,71.38
2023-01-07T01:46:27.459Z,71.47
2023-01-07T01:48:58.957Z,72.02
2023-01-07T01:51:28.705Z,71.50
2023-01-07T01:53:56.007Z,71.19
2023-01-07T01:56:27.870Z,71.14
2023-01-07T01:59:00.412Z,71.16
2023-01-07T02:01:27.695Z,71.76
2023-01-07T02:03:57.551Z,72.41
2023-01-07T02:06:32.438Z,72.36
2023-01-07T02:08:58.882Z,72.50
2023-01-07T02:11:38.724Z,72.29
2023-01-07T02:14:39.792Z,72.62
2023-01-07T02:17:29.106Z,71.87
2023-01-07T02:20:14.141Z,72.18
2023-01-07T02:23:11.551Z,72.14
2023-01-07T02:25:41.908Z,71.68
2023-01-07T02:28:42.000Z,71.39
2023-01-07T02:31:26.767Z,71.51
2023-01-07T02:34:12.010Z,71.39
2023-01-07T02:36:56.643Z,71.88
2023-01-07T02:39:41.552Z,72.19
2023-01-07T02:42:13.930Z,72.36
2023-01-07T02:45:02.256Z,72.10
2023-01-07T02:47:39.496Z,72.70
2023-01-07T02:50:07.787Z,72.89
2023-01-07T02:52:36.209Z,72.99
2023-01-07T02:55:08.245Z,73.15
2023-01-07T02:58:00.569Z,73.41
2023-01-07T03:00:51.690Z,73.43
2023-01-07T03:03:31.617Z,73.50
2023-01-07T03:06:17.496Z,73.91
2023-01-07T03:09:11.780Z,73.63
2023-01-07T03:11:47.549Z,73.35
2023-01-07T03:14:19.464Z,73.32
2023-01-07T03:16:55.150Z,74.20
2023-01-07T03:19:32.023Z,74.44
2023-01-07T03:22:02.152Z,74.21
2023-01-07T03:24:31.277Z,74.17
2023-01-07T03:27:00.312Z,74.21
2023-01-07T03:29:27.930Z,73.93
2023-01-07T03:32:10.399Z,73.84
2023-01-07T03:34:38.470Z,73.94
2023-01-07T03:37:10.438Z,74.08
2023-01-07T03:39:39.652Z,74.49
2023-01-07T03:42:27.758Z,74.37
2023-01-07T03:44:54.691Z,74.29
2023-01-07T03:47:23.974Z,74.43
2023-01-07T03:49:50.644Z,74.50
2023-01-07T03:52:17.119Z,74.84
2023-01-07T03:54:43.558Z,74.57
2023-01-07T03:57:10.616Z,74.30
2023-01-07T03:59:37.210Z,74.42
2023-01-07T04:02:05.505Z,74.41
2023-01-07T04:04:33.390Z,74.95
2023-01-07T04:07:00.204Z,74.47
2023-01-07T04:09:27.343Z,74.70
2023-01-07T04:11:54.130Z,74.59
2023-01-07T04:14:20.634Z,75.02
2023-01-07T04:16:47.253Z,74.99
2023-01-07T04:19:14.195Z,75.31
2023-01-07T04:21:40.650Z,75.10
2023-01-07T04:24:07.690Z,75.28
2023-01-07T04:26:34.455Z,75.35
2023-01-07T04:29:01.168Z,75.02
2023-01-07T04:31:27.959Z,74.95
2023-01-07T04:33:55.099Z,75.38
2023-01-07T04:36:22.119Z,75.52
2023-01-07T04:38:48.771Z,75.60
2023-01-07T04:41:15.492Z,75.70
2023-01-07T04:43:41.962Z,75.49
2023-01-07T04:46:08.516Z,76.04
2023-01-07T04:48:35.821Z,75.84
2023-01-07T04:51:02.596Z,76.09
2023-01-07T04:53:29.434Z,75.72
2023-01-07T04:55:55.964Z,75.64
2023-01-07T04:58:22.968Z,75.97
2023-01-07T05:00:54.012Z,76.65
2023-01-07T05:03:21.452Z,76.09
2023-01-07T05:05:48.435Z,76.39
2023-01-07T05:08:16.153Z,75.87
2023-01-07T05:10:42.640Z,76.33
2023-01-07T05:13:15.617Z,76.28
2023-01-07T05:15:42.520Z,75.95
2023-01-07T05:18:09.794Z,76.00
2023-01-07T05:20:36.433Z,76.18
2023-01-07T05:23:04.753Z,76.27
2023-01-07T05:25:33.875Z,75.94
2023-01-07T05:28:00.840Z,76.27
2023-01-07T05:30:29.469Z,75.97
2023-01-07T05:32:56.333Z,76.07
2023-01-07T05:35:23.852Z,75.96
2023-01-07T05:37:50.632Z,75.84
2023-01-07T05:40:17.987Z,75.58
2023-01-07T05:42:44.438Z,75.23
2023-01-07T05:45:11.506Z,75.35
2023-01-07T05:47:38.003Z,75.54
2023-01-07T05:50:04.922Z,75.13
2023-01-07T05:52:31.354Z,74.99
2023-01-07T05:54:57.772Z,75.40
2023-01-07T05:57:24.192Z,75.03
2023-01-07T05:59:50.608Z,75.16
2023-01-07T06:02:17.845Z,75.06
2023-01-07T06:04:44.345Z,75.00
2023-01-07T06:07:10.953Z,75.26
2023-01-07T06:09:37.378Z,75.17
2023-01-07T06:12:04.045Z,75.22
2023-01-07T06:14:30.514Z,75.10
2023-01-07T06:16:56.979Z,74.77
2023-01-07T06:19:23.478Z,75.03
2023-01-07T06:21:50.035Z,74.95
2023-01-07T06:24:16.504Z,74.79
2023-01-07T06:26:42.995Z,75.05
2023-01-07T06:29:10.945Z,74.45
2023-01-07T06:31:37.485Z,74.77
2023-01-07T06:34:04.054Z,74.97
2023-01-07T06:36:30.498Z,74.97
2023-01-07T06:38:56.936Z,74.93
2023-01-07T06:41:23.368Z,75.04
2023-01-07T06:43:49.824Z,74.69
2023-01-07T06:46:16.440Z,74.28
2023-01-07T06:48:42.895Z,74.02
2023-01-07T06:51:09.362Z,73.83
2023-01-07T06:53:35.775Z,74.19
2023-01-07T06:56:02.422Z,74.07
2023-01-07T06:58:29.070Z,74.23
2023-01-07T07:00:55.667Z,74.04
2023-01-07T07:03:22.240Z,73.97
2023-01-07T07:05:48.732Z,74.36
2023-01-07T07:08:15.188Z,73.99
2023-01-07T07:10:41.603Z,73.62
2023-01-07T07:13:08.387Z,74.00
2023-01-07T07:15:34.830Z,73.82
2023-01-07T07:18:01.246Z,73.54
2023-01-07T07:20:27.716Z,73.76
2023-01-07T07:22:54.141Z,73.78
2023-01-07T07:25:20.593Z,73.70
2023-01-07T07:27:47.128Z,73.59
2023-01-07T07:30:15.611Z,73.74
2023-01-07T07:32:42.771Z,73.19
2023-01-07T07:35:10.112Z,72.89
2023-01-07T07:37:37.082Z,72.49
2023-01-07T07:40:04.943Z,72.48
2023-01-07T07:42:31.558Z,72.23
2023-01-07T07:44:58.891Z,72.81
2023-01-07T07:47:25.349Z,72.89
2023-01-07T07:49:51.905Z,72.44
2023-01-07T07:52:18.626Z,72.34
2023-01-07T07:54:45.175Z,72.36
2023-01-07T07:57:11.588Z,72.93
2023-01-07T07:59:38.053Z,72.86
2023-01-07T08:02:04.563Z,72.86
2023-01-07T08:04:34.076Z,72.73
2023-01-07T08:07:01.648Z,72.87
2023-01-07T08:09:28.090Z,72.45
2023-01-07T08:11:54.663Z,72.45
2023-01-07T08:14:21.158Z,72.40
2023-01-07T08:16:47.581Z,71.77
2023-01-07T08:19:14.967Z,71.94
2023-01-07T08:21:41.375Z,71.40
2023-01-07T08:24:07.952Z,71.92
2023-01-07T08:26:34.408Z,71.54
2023-01-07T08:29:00.857Z,71.70
2023-01-07T08:31:27.342Z,72.05
2023-01-07T08:33:53.846Z,71.69
2023-01-07T08:36:23.764Z,71.56
2023-01-07T08:38:51.837Z,71.83
2023-01-07T08:41:19.175Z,72.29
2023-01-07T08:43:45.659Z,72.09
2023-01-07T08:46:12.064Z,72.06
2023-01-07T08:48:40.168Z,71.34
2023-01-07T08:51:07.297Z,71.46
2023-01-07T08:53:35.101Z,72.26
2023-01-07T08:56:01.581Z,71.87
2023-01-07T08:58:28.035Z,72.25
2023-01-07T09:00:54.617Z,72.75
2023-01-07T09:03:21.126Z,72.33
2023-01-07T09:05:47.573Z,72.76
2023-01-07T09:08:14.272Z,72.17
2023-01-07T09:10:40.728Z,71.71
2023-01-07T09:13:07.449Z,72.61
2023-01-07T09:15:34.207Z,72.44
2023-01-07T09:18:03.507Z,72.53
2023-01-07T09:20:30.541Z,72.55
2023-01-07T09:22:56.944Z,72.91
2023-01-07T09:25:23.383Z,72.64
2023-01-07T09:27:49.898Z,72.90
2023-01-07T09:30:17.329Z,73.09
2023-01-07T09:32:44.498Z,73.03
2023-01-07T09:35:11.398Z,72.97
2023-01-07T09:37:38.193Z,73.18
2023-01-07T09:40:05.889Z,73.53
2023-01-07T09:42:52.219Z,72.99
2023-01-07T09:45:24.332Z,72.78
2023-01-07T09:48:35.283Z,72.84
2023-01-07T09:51:07.147Z,72.71
2023-01-07T09:53:43.878Z,72.39
2023-01-07T09:56:24.893Z,72.53
2023-01-07T09:58:53.883Z,72.40
2023-01-07T10:01:35.229Z,72.81
2023-01-07T10:04:04.672Z,72.06
2023-01-07T10:07:02.269Z,72.69
2023-01-07T10:10:04.074Z,72.59
2023-01-07T10:12:40.138Z,72.76
2023-01-07T10:15:09.579Z,71.85
2023-01-07T10:17:54.888Z,71.89
2023-01-07T10:20:50.052Z,71.77
2023-01-07T10:23:23.955Z,71.14
2023-01-07T10:25:53.260Z,72.03
2023-01-07T10:28:29.945Z,71.42
2023-01-07T10:30:57.716Z,71.18
2023-01-07T10:33:29.005Z,71.35
2023-01-07T10:36:14.620Z,70.81
2023-01-07T10:38:46.822Z,70.92
2023-01-07T10:41:22.620Z,70.04
2023-01-07T10:44:16.515Z,70.11
2023-01-07T10:46:58.203Z,69.79
2023-01-07T10:49:54.670Z,69.71
2023-01-07T10:52:33.563Z,68.92
2023-01-07T10:55:11.115Z,68.51
2023-01-07T10:57:38.799Z,69.21
2023-01-07T11:00:08.173Z,68.38
2023-01-07T11:02:34.661Z,69.13
2023-01-07T11:05:01.262Z,68.60
2023-01-07T11:07:33.902Z,67.88
2023-01-07T11:10:04.218Z,67.30
2023-01-07T11:12:48.093Z,67.81
2023-01-07T11:15:34.292Z,68.32
2023-01-07T11:18:25.436Z,67.37
2023-01-07T11:20:54.468Z,67.05
2023-01-07T11:23:43.752Z,67.62
2023-01-07T11:26:22.995Z,67.68
2023-01-07T11:28:53.381Z,67.36
2023-01-07T11:31:22.808Z,66.92
2023-01-07T11:34:01.512Z,67.02
2023-01-07T11:36:41.217Z,67.04
2023-01-07T11:39:18.965Z,65.93
2023-01-07T11:42:33.459Z,66.57
2023-01-07T11:45:17.544Z,66.32
2023-01-07T11:47:59.085Z,65.35
2023-01-07T11:50:34.868Z,64.83
2023-01-07T11:53:08.411Z,65.61
2023-01-07T11:55:35.209Z,64.06
2023-01-07T11:58:28.299Z,64.43
2023-01-07T12:01:12.697Z,64.48
2023-01-07T12:03:44.113Z,63.50
2023-01-07T12:06:32.894Z,63.05
2023-01-07T12:09:04.590Z,63.25
2023-01-07T12:11:34.618Z,62.62
2023-01-07T12:14:31.397Z,62.22
2023-01-07T12:17:15.364Z,62.41
2023-01-07T12:20:14.408Z,62.45
2023-01-07T12:23:05.554Z,61.55
2023-01-07T12:25:47.592Z,60.89
2023-01-07T12:28:26.523Z,61.29
2023-01-07T12:31:32.374Z,61.24
2023-01-07T12:34:07.727Z,60.60
2023-01-07T12:37:05.429Z,61.21
2023-01-07T12:39:38.581Z,60.44
2023-01-07T12:42:11.885Z,60.45
2023-01-07T12:44:44.510Z,60.01
2023-01-07T12:47:31.088Z,60.64
2023-01-07T12:50:11.943Z,60.58
2023-01-07T12:53:09.616Z,60.01
2023-01-07T12:55:40.800Z,60.49
2023-01-07T12:58:22.133Z,60.09
2023-01-07T13:01:15.321Z,59.71
2023-01-07T13:03:57.124Z,59.59
2023-01-07T13:06:44.564Z,59.44
2023-01-07T13:09:32.847Z,59.43
2023-01-07T13:12:42.086Z,59.81
2023-01-07T13:15:22.375Z,59.51
2023-01-07T13:17:56.979Z,59.34
2023-01-07T13:20:37.426Z,59.69
2023-01-07T13:23:05.514Z,59.76
2023-01-07T13:25:59.756Z,60.33
2023-01-07T13:28:44.562Z,59.40
2023-01-07T13:31:41.908Z,59.37
2023-01-07T13:34:40.103Z,58.73
2023-01-07T13:37:25.007Z,58.82
2023-01-07T13:40:08.756Z,58.93
2023-01-07T13:42:50.387Z,58.51
2023-01-07T13:45:21.909Z,58.06
2023-01-07T13:47:52.748Z,58.21
2023-01-07T13:50:27.401Z,58.59
2023-01-07T13:53:05.114Z,57.76
2023-01-07T13:55:41.095Z,58.80
2023-01-07T13:58:29.357Z,58.38
2023-01-07T14:01:30.397Z,58.30
2023-01-07T14:04:03.296Z,57.50
2023-01-07T14:06:29.692Z,57.96
2023-01-07T14:09:15.865Z,57.11
2023-01-07T14:11:59.759Z,57.33
2023-01-07T14:14:50.839Z,56.61
2023-01-07T14:17:55.386Z,56.83
2023-01-07T14:20:32.772Z,56.55
2023-01-07T14:23:19.971Z,56.45
2023-01-07T14:25:52.384Z,56.90
2023-01-07T14:28:24.966Z,56.96
2023-01-07T14:30:53.148Z,57.09
2023-01-07T14:33:26.287Z,57.09
2023-01-07T14:35:59.291Z,57.79
2023-01-07T14:38:31.949Z,59.28
2023-01-07T14:41:10.322Z,59.81
2023-01-07T14:43:43.256Z,60.40
2023-01-07T14:46:22.133Z,61.77
2023-01-07T14:49:03.991Z,61.96
2023-01-07T14:52:02.027Z,62.05
2023-01-07T14:54:58.792Z,62.85
2023-01-07T14:57:56.587Z,63.46
2023-01-07T15:00:53.853Z,63.64
2023-01-07T15:03:54.410Z,63.97
2023-01-07T15:06:27.057Z,64.41
2023-01-07T15:09:12.057Z,64.64
2023-01-07T15:12:00.404Z,64.85
2023-01-07T15:14:56.907Z,65.63
2023-01-07T15:17:23.426Z,65.80
2023-01-07T15:19:51.748Z,66.40
2023-01-07T15:22:35.647Z,66.66
2023-01-07T15:25:14.905Z,66.71
2023-01-07T15:27:57.031Z,67.37
2023-01-07T15:30:43.128Z,67.52
2023-01-07T15:33:44.720Z,68.28
2023-01-07T15:36:14.057Z,68.48
2023-01-07T15:38:49.601Z,68.97
2023-01-07T15:41:29.112Z,68.56
2023-01-07T15:43:56.609Z,67.54
2023-01-07T15:46:25.558Z,67.59
2023-01-07T15:49:10.415Z,68.70
2023-01-07T15:51:42.861Z,66.70
2023-01-07T15:54:41.860Z,68.41
2023-01-07T15:57:20.697Z,70.12
2023-01-07T15:59:50.618Z,70.56
2023-01-07T16:02:27.489Z,70.88
2023-01-07T16:04:57.257Z,69.12
2023-01-07T16:07:27.985Z,69.65
2023-01-07T16:09:55.306Z,69.09
2023-01-07T16:12:28.948Z,68.99
2023-01-07T16:14:55.408Z,69.17
2023-01-07T16:17:22.029Z,69.63
2023-01-07T16:19:48.516Z,69.07
2023-01-07T16:22:18.919Z,69.47
2023-01-07T16:24:47.843Z,69.44
2023-01-07T16:27:15.794Z,69.67
2023-01-07T16:29:50.843Z,70.37
2023-01-07T16:32:18.525Z,70.09
2023-01-07T16:34:52.903Z,68.89
2023-01-07T16:37:19.871Z,68.60
2023-01-07T16:39:48.886Z,70.05
2023-01-07T16:42:27.328Z,69.76
2023-01-07T16:44:53.746Z,70.23
2023-01-07T16:47:22.803Z,70.47
2023-01-07T16:49:50.683Z,70.73
2023-01-07T16:52:18.815Z,71.46
2023-01-07T16:54:46.521Z,72.50
2023-01-07T16:57:12.903Z,72.86
2023-01-07T16:59:49.651Z,73.40
2023-01-07T17:02:40.341Z,73.26
2023-01-07T17:05:19.230Z,73.23
2023-01-07T17:07:57.988Z,72.69
2023-01-07T17:10:33.834Z,72.73
2023-01-07T17:13:15.440Z,73.41
2023-01-07T17:15:43.404Z,73.49
2023-01-07T17:18:12.971Z,73.52
2023-01-07T17:20:43.039Z,73.54
2023-01-07T17:23:27.486Z,73.47
2023-01-07T17:25:58.364Z,73.63
2023-01-07T17:28:26.502Z,74.01
2023-01-07T17:30:53.471Z,74.54
2023-01-07T17:33:23.303Z,74.64
2023-01-07T17:35:51.272Z,72.81
2023-01-07T17:38:18.885Z,72.21
2023-01-07T17:40:46.059Z,72.86
2023-01-07T17:43:33.504Z,73.68
2023-01-07T17:46:09.106Z,73.22
2023-01-07T17:48:35.808Z,72.30
2023-01-07T17:51:04.439Z,72.54
2023-01-07T17:53:36.234Z,73.28
2023-01-07T17:56:03.253Z,72.96
2023-01-07T17:58:37.349Z,73.09
2023-01-07T18:01:18.892Z,74.04
2023-01-07T18:03:46.288Z,73.51
2023-01-07T18:06:21.838Z,73.12
2023-01-07T18:08:49.954Z,73.61
2023-01-07T18:11:38.696Z,73.85
2023-01-07T18:14:05.694Z,72.93
2023-01-07T18:16:32.573Z,73.12
2023-01-07T18:18:59.064Z,73.18
2023-01-07T18:21:25.529Z,73.17
2023-01-07T18:23:51.996Z,73.94
2023-01-07T18:26:18.787Z,73.46
2023-01-07T18:28:47.009Z,72.67
2023-01-07T18:31:13.636Z,72.16
2023-01-07T18:33:40.236Z,73.10
2023-01-07T18:36:07.065Z,73.04
2023-01-07T18:38:33.670Z,73.02
2023-01-07T18:41:00.094Z,72.79
2023-01-07T18:43:26.567Z,72.71
2023-01-07T18:45:53.109Z,73.09
2023-01-07T18:48:19.984Z,73.33
2023-01-07T18:50:48.858Z,72.85
2023-01-07T18:53:16.749Z,72.73
2023-01-07T18:55:44.670Z,72.71
2023-01-07T18:58:14.484Z,73.89
2023-01-07T19:00:41.394Z,74.67
2023-01-07T19:03:07.973Z,75.02
2023-01-07T19:05:34.479Z,74.74
2023-01-07T19:08:00.998Z,73.90
2023-01-07T19:10:27.489Z,71.86
2023-01-07T19:12:53.905Z,72.75
2023-01-07T19:15:20.325Z,73.40
2023-01-07T19:17:46.756Z,74.12
2023-01-07T19:20:15.210Z,73.65
2023-01-07T19:22:41.941Z,73.96
2023-01-07T19:25:09.242Z,73.83
2023-01-07T19:27:35.684Z,73.67
2023-01-07T19:30:02.108Z,73.81
2023-01-07T19:32:31.607Z,75.05
2023-01-07T19:34:58.078Z,75.27
2023-01-07T19:37:24.565Z,74.93
2023-01-07T19:39:51.006Z,74.21
2023-01-07T19:42:17.460Z,73.82
2023-01-07T19:44:44.016Z,74.38
2023-01-07T19:47:10.431Z,74.30
2023-01-07T19:49:36.843Z,74.25
2023-01-07T19:52:03.339Z,74.62
2023-01-07T19:54:29.897Z,74.53
2023-01-07T19:56:56.337Z,74.07
2023-01-07T19:59:22.896Z,74.21
2023-01-07T20:01:49.959Z,74.88
2023-01-07T20:04:16.879Z,75.09
2023-01-07T20:06:43.453Z,73.55
2023-01-07T20:09:12.798Z,73.56
2023-01-07T20:11:40.421Z,73.46
2023-01-07T20:14:10.603Z,74.37
2023-01-07T20:16:39.360Z,73.64
2023-01-07T20:19:06.235Z,73.66
2023-01-07T20:21:33.198Z,72.42
2023-01-07T20:23:59.652Z,72.58
2023-01-07T20:26:28.833Z,72.59
2023-01-07T20:28:55.857Z,73.29
2023-01-07T20:31:24.568Z,73.34
2023-01-07T20:33:51.253Z,74.82
2023-01-07T20:36:23.721Z,75.19
2023-01-07T20:38:50.905Z,75.80
2023-01-07T20:41:23.942Z,75.46
2023-01-07T20:43:52.620Z,75.58
2023-01-07T20:46:19.685Z,75.13
2023-01-07T20:48:46.421Z,74.38
2023-01-07T20:51:14.247Z,73.31
2023-01-07T20:53:41.613Z,73.16
2023-01-07T20:56:08.938Z,73.57
2023-01-07T20:58:36.904Z,74.05
2023-01-07T21:01:10.126Z,75.08
2023-01-07T21:03:38.356Z,75.17
2023-01-07T21:06:07.681Z,75.62
2023-01-07T21:08:35.285Z,75.75
2023-01-07T21:11:01.906Z,75.49
2023-01-07T21:13:28.453Z,75.69
2023-01-07T21:16:01.486Z,76.45
2023-01-07T21:18:28.069Z,77.05
2023-01-07T21:20:54.603Z,77.55
2023-01-07T21:23:21.144Z,77.70
2023-01-07T21:25:48.991Z,77.26
2023-01-07T21:28:15.866Z,77.35
2023-01-07T21:30:42.481Z,77.83
2023-01-07T21:33:08.975Z,78.17
2023-01-07T21:35:38.937Z,77.05
2023-01-07T21:38:05.897Z,78.14
2023-01-07T21:40:32.318Z,76.15
2023-01-07T21:42:59.184Z,75.81
2023-01-07T21:45:25.627Z,75.63
2023-01-07T21:47:52.079Z,76.14
2023-01-07T21:50:18.706Z,75.74
2023-01-07T21:52:45.179Z,74.89
2023-01-07T21:55:11.603Z,74.57
2023-01-07T21:57:38.177Z,73.01
2023-01-07T22:00:06.613Z,73.46
2023-01-07T22:02:38.577Z,74.30
2023-01-07T22:05:05.456Z,74.45
2023-01-07T22:07:31.864Z,75.40
2023-01-07T22:09:58.268Z,74.74
2023-01-07T22:12:25.669Z,75.08
2023-01-07T22:14:52.087Z,75.47
2023-01-07T22:17:18.828Z,75.59
2023-01-07T22:19:45.291Z,75.70
2023-01-07T22:22:11.818Z,77.64
2023-01-07T22:24:38.250Z,77.71
2023-01-07T22:27:04.710Z,77.41
2023-01-07T22:29:32.208Z,79.30
2023-01-07T22:31:59.028Z,77.22
2023-01-07T22:34:25.670Z,77.41
2023-01-07T22:37:15.026Z,77.14
2023-01-07T22:39:46.825Z,77.93
2023-01-07T22:42:31.964Z,79.69
2023-01-07T22:45:15.075Z,78.77
2023-01-07T22:47:46.568Z,77.42
2023-01-07T22:50:14.583Z,77.62
2023-01-07T22:52:42.513Z,77.89
2023-01-07T22:55:10.544Z,78.42
2023-01-07T22:57:37.101Z,78.38
2023-01-07T23:00:06.091Z,78.63
2023-01-07T23:02:32.501Z,77.20
2023-01-07T23:04:59.237Z,77.08
2023-01-07T23:07:25.664Z,78.24
2023-01-07T23:09:52.134Z,78.63
2023-01-07T23:12:18.543Z,78.14
2023-01-07T23:14:45.070Z,77.58
2023-01-07T23:17:11.529Z,77.97
2023-01-07T23:19:37.975Z,77.08
2023-01-07T23:22:04.464Z,78.07
2023-01-07T23:24:30.991Z,77.83
2023-01-07T23:26:57.427Z,77.71
2023-01-07T23:29:24.043Z,77.73
2023-01-07T23:31:50.626Z,78.21
2023-01-07T23:34:17.202Z,77.79
2023-01-07T23:36:43.990Z,78.26
2023-01-07T23:39:10.436Z,78.61
2023-01-07T23:41:36.857Z,77.90
2023-01-07T23:44:03.357Z,77.50
2023-01-07T23:46:29.959Z,77.93
2023-01-07T23:48:56.472Z,78.37
2023-01-07T23:51:22.959Z,78.09
2023-01-07T23:53:49.589Z,78.05
2023-01-07T23:56:20.499Z,78.51
2023-01-07T23:58:48.203Z,78.87
